Time;durP1;ratioP1;P1;durP2;ratioP2;P2;SDS_P1;SDS_P2;PMS_P1;PMS_P2;Temp;Humidity;BMP_temperature;BMP_pressure;BME280_temperature;BME280_humidity;BME280_pressure;Samples;Min_cycle;Max_cycle;Signal;HPM_P1;HPM_P2
2022/10/14 00:01:31;;;;;;;36.00;23.73;;;;;;;9.23;98.59;100790.72;5028809;28;20615;-65
2022/10/14 00:03:57;;;;;;;34.33;22.85;;;;;;;9.32;98.68;100803.38;5028778;28;20034;-63
2022/10/14 00:06:28;;;;;;;33.17;22.13;;;;;;;9.32;98.30;100798.03;5028500;28;20030;-64
2022/10/14 00:08:54;;;;;;;35.83;22.65;;;;;;;9.31;98.61;100795.50;5030495;28;20037;-64
2022/10/14 00:11:25;;;;;;;32.35;23.55;;;;;;;9.32;98.51;100806.91;5023958;28;20111;-64
2022/10/14 00:14:01;;;;;;;33.75;23.48;;;;;;;9.33;98.40;100797.09;5032222;28;20051;-64
2022/10/14 00:16:31;;;;;;;30.80;22.27;;;;;;;9.31;98.74;100795.50;5031899;28;20048;-63
2022/10/14 00:18:57;;;;;;;36.38;23.90;;;;;;;9.27;99.05;100793.06;5030610;28;20060;-63
2022/10/14 00:21:23;;;;;;;30.90;22.48;;;;;;;9.23;98.83;100777.34;5031624;28;20108;-64
2022/10/14 00:23:49;;;;;;;34.60;23.95;;;;;;;9.26;99.04;100787.81;5030312;28;20507;-63
2022/10/14 00:26:21;;;;;;;34.55;22.85;;;;;;;9.27;99.27;100789.50;5030068;28;20025;-63
2022/10/14 00:28:46;;;;;;;35.10;23.17;;;;;;;9.28;99.02;100783.16;5030955;28;20054;-63
2022/10/14 00:31:13;;;;;;;30.33;21.88;;;;;;;9.25;99.13;100778.06;5031382;28;20056;-64
2022/10/14 00:33:39;;;;;;;31.40;22.52;;;;;;;9.26;99.09;100777.09;5031897;28;20527;-63
2022/10/14 00:36:05;;;;;;;32.25;22.63;;;;;;;9.18;98.74;100764.28;5031776;28;20025;-63
2022/10/14 00:38:31;;;;;;;32.47;22.02;;;;;;;9.13;98.75;100755.75;5032027;28;20024;-64
2022/10/14 00:40:57;;;;;;;32.17;22.15;;;;;;;9.24;99.09;100771.00;5031458;28;20037;-64
2022/10/14 00:43:25;;;;;;;30.60;23.35;;;;;;;9.23;99.18;100771.97;5032226;28;20488;-63
2022/10/14 00:45:51;;;;;;;35.08;23.00;;;;;;;9.23;99.36;100766.63;5031409;28;20480;-63
2022/10/14 00:48:19;;;;;;;30.75;21.83;;;;;;;9.11;99.28;100751.47;5031780;28;20033;-64
2022/10/14 00:50:48;;;;;;;34.03;23.27;;;;;;;9.20;99.22;100762.34;5031331;28;20033;-64
2022/10/14 00:53:14;;;;;;;33.20;21.70;;;;;;;9.21;99.42;100769.41;5031895;28;20484;-63
2022/10/14 00:55:41;;;;;;;32.78;22.23;;;;;;;9.11;99.44;100748.81;5031492;28;20758;-64
2022/10/14 00:58:08;;;;;;;34.13;23.50;;;;;;;9.22;99.36;100768.44;5031311;28;20064;-63
2022/10/14 01:00:33;;;;;;;32.55;22.15;;;;;;;9.22;99.60;100765.75;5030772;28;20468;-63
2022/10/14 01:02:59;;;;;;;31.48;20.65;;;;;;;9.21;99.55;100760.53;5031376;28;20065;-63
2022/10/14 01:05:30;;;;;;;31.98;20.95;;;;;;;9.20;99.32;100761.50;5031272;28;20026;-64
2022/10/14 01:08:07;;;;;;;32.80;20.85;;;;;;;9.16;99.43;100754.69;5031082;28;20057;-64
2022/10/14 01:10:36;;;;;;;32.63;21.75;;;;;;;9.18;99.84;100764.28;5030891;28;20017;-63
2022/10/14 01:13:22;;;;;;;33.90;22.30;;;;;;;9.12;99.48;100753.19;5031569;28;20108;-64
2022/10/14 01:15:59;;;;;;;29.13;21.70;;;;;;;9.14;99.91;100753.94;5031414;28;20029;-63
2022/10/14 01:19:17;;;;;;;34.67;21.48;;;;;;;9.14;99.86;100759.28;5017022;28;20468;-64
2022/10/14 01:21:57;;;;;;;29.05;20.98;;;;;;;9.10;100.00;100742.59;5012015;28;20041;-64
2022/10/14 01:24:43;;;;;;;32.92;21.48;;;;;;;9.12;100.00;100747.81;5031116;28;20520;-63
2022/10/14 01:27:17;;;;;;;31.45;21.02;;;;;;;9.12;100.00;100753.19;5020537;28;20048;-63
2022/10/14 01:29:59;;;;;;;31.55;22.13;;;;;;;9.11;100.00;100751.47;5031128;28;20116;-65
2022/10/14 01:33:13;;;;;;;31.25;21.20;;;;;;;9.07;100.00;100744.66;5031401;28;20056;-64
2022/10/14 01:35:51;;;;;;;30.00;20.40;;;;;;;9.05;100.00;100736.75;5015185;28;20087;-64
2022/10/14 01:38:30;;;;;;;31.17;21.25;;;;;;;8.96;100.00;100726.72;5031322;28;20459;-62
2022/10/14 01:41:21;;;;;;;34.70;22.35;;;;;;;9.07;100.00;100744.66;5030728;28;20029;-65
2022/10/14 01:43:49;;;;;;;31.02;21.60;;;;;;;9.08;100.00;100746.34;5030923;28;20503;-64
2022/10/14 01:46:17;;;;;;;33.95;22.60;;;;;;;9.03;100.00;100738.66;5030428;28;20034;-65
2022/10/14 01:48:49;;;;;;;33.67;22.30;;;;;;;9.09;100.00;100746.25;5026606;28;20038;-64
2022/10/14 01:51:28;;;;;;;34.50;22.45;;;;;;;8.72;100.00;100679.56;5028769;28;20025;-65
2022/10/14 01:53:59;;;;;;;31.65;21.17;;;;;;;9.06;100.00;100737.56;5030790;28;20112;-64
2022/10/14 01:56:28;;;;;;;33.53;21.98;;;;;;;9.06;100.00;100738.44;5030760;28;20029;-65
2022/10/14 01:58:55;;;;;;;32.13;22.83;;;;;;;9.05;100.00;100738.56;5030940;28;20045;-65
2022/10/14 02:01:20;;;;;;;32.22;22.77;;;;;;;9.08;100.00;100743.69;5045203;28;20029;-64
2022/10/14 02:03:47;;;;;;;37.33;23.42;;;;;;;9.06;100.00;100737.56;5030466;28;20506;-64
2022/10/14 02:06:32;;;;;;;31.90;22.48;;;;;;;9.08;100.00;100747.22;5030368;28;20551;-63
2022/10/14 02:09:00;;;;;;;32.75;21.90;;;;;;;9.07;100.00;100741.97;5030477;28;20049;-65
2022/10/14 02:11:30;;;;;;;33.58;23.30;;;;;;;9.03;100.00;100736.00;5028839;28;20029;-65
2022/10/14 02:13:55;;;;;;;35.13;25.30;;;;;;;9.04;100.00;100745.75;5028879;28;20404;-64
2022/10/14 02:16:27;;;;;;;33.80;23.50;;;;;;;9.07;100.00;100744.66;5029403;28;20033;-64
2022/10/14 02:19:05;;;;;;;33.42;23.60;;;;;;;9.06;100.00;100740.25;5030118;28;20033;-63
2022/10/14 02:21:42;;;;;;;36.42;25.20;;;;;;;9.06;100.00;100743.78;5029978;28;20033;-63
2022/10/14 02:24:21;;;;;;;32.70;23.52;;;;;;;9.06;100.00;100740.25;5030218;28;20502;-63
2022/10/14 02:26:49;;;;;;;37.55;24.52;;;;;;;8.84;100.00;100700.06;5028422;28;20035;-64
2022/10/14 02:29:18;;;;;;;38.00;25.02;;;;;;;9.04;100.00;100739.53;5029788;28;20103;-63
2022/10/14 02:31:45;;;;;;;35.95;24.60;;;;;;;9.06;100.00;100742.94;5029270;28;20040;-64
2022/10/14 02:34:13;;;;;;;35.67;24.80;;;;;;;9.05;100.00;100754.59;5030185;28;20025;-64
2022/10/14 02:36:40;;;;;;;35.42;24.73;;;;;;;9.05;100.00;100746.59;5029885;28;20480;-64
2022/10/14 02:39:10;;;;;;;34.33;24.75;;;;;;;9.05;100.00;100749.25;5028997;28;20025;-64
2022/10/14 02:41:36;;;;;;;37.70;25.42;;;;;;;9.02;100.00;100747.66;5029947;28;20021;-64
2022/10/14 02:44:04;;;;;;;32.55;24.05;;;;;;;8.96;100.00;100733.88;5029401;28;20531;-64
2022/10/14 02:46:31;;;;;;;40.13;25.33;;;;;;;9.01;100.00;100737.94;5029948;28;20029;-64
2022/10/14 02:48:56;;;;;;;36.53;24.73;;;;;;;8.93;100.00;100731.44;5029817;28;20037;-64
2022/10/14 02:51:22;;;;;;;42.30;26.17;;;;;;;8.90;100.00;100723.66;5030120;28;20033;-64
2022/10/14 02:53:47;;;;;;;39.65;27.42;;;;;;;9.03;100.00;100745.88;5030016;28;20080;-63
2022/10/14 02:56:15;;;;;;;46.67;29.20;;;;;;;9.06;100.00;100733.09;5029085;28;20021;-64
2022/10/14 02:58:41;;;;;;;45.30;29.25;;;;;;;9.09;100.00;100737.34;5029187;28;20089;-64
2022/10/14 03:01:07;;;;;;;43.47;29.23;;;;;;;9.12;100.00;100734.44;5029685;28;20420;-65
2022/10/14 03:03:32;;;;;;;43.70;28.98;;;;;;;9.12;100.00;100737.13;5029741;28;20022;-65
2022/10/14 03:05:58;;;;;;;47.40;31.77;;;;;;;9.14;100.00;100737.88;5029558;28;20496;-64
2022/10/14 03:08:23;;;;;;;44.88;29.27;;;;;;;9.17;100.00;100737.66;5028095;28;20037;-64
2022/10/14 03:10:48;;;;;;;46.08;30.35;;;;;;;9.19;100.00;100736.56;5029129;28;20034;-64
2022/10/14 03:13:14;;;;;;;43.65;29.38;;;;;;;9.24;100.00;100741.56;5027812;28;20091;-63
2022/10/14 03:15:40;;;;;;;45.50;30.02;;;;;;;9.27;100.00;100746.69;5033111;28;20158;-64
2022/10/14 03:18:05;;;;;;;45.20;31.13;;;;;;;9.22;100.00;100724.75;5041469;28;20112;-64
2022/10/14 03:20:31;;;;;;;42.40;28.48;;;;;;;9.33;100.00;100744.38;5042199;28;20576;-64
2022/10/14 03:22:56;;;;;;;45.15;31.70;;;;;;;9.37;100.00;100747.69;5042478;28;20049;-63
2022/10/14 03:25:23;;;;;;;46.72;30.42;;;;;;;9.42;100.00;100744.66;5035315;28;20052;-64
2022/10/14 03:27:48;;;;;;;46.95;32.75;;;;;;;9.42;100.00;100742.00;5034634;28;20025;-64
2022/10/14 03:30:14;;;;;;;51.63;31.65;;;;;;;9.49;100.00;100740.53;5034367;28;20048;-65
2022/10/14 03:32:39;;;;;;;43.85;30.60;;;;;;;9.54;100.00;100744.56;5028062;28;20029;-64
2022/10/14 03:35:05;;;;;;;46.00;30.88;;;;;;;9.57;100.00;100743.50;5029506;28;20075;-65
2022/10/14 03:37:31;;;;;;;46.63;31.35;;;;;;;9.55;100.00;100724.88;5029519;28;20120;-64
2022/10/14 03:39:56;;;;;;;46.95;29.83;;;;;;;9.66;100.00;100737.41;5029268;28;20025;-63
2022/10/14 03:42:22;;;;;;;45.60;31.35;;;;;;;9.65;100.00;100725.88;5013371;28;20215;-64
2022/10/14 03:44:47;;;;;;;48.60;31.42;;;;;;;9.68;100.00;100724.78;5031594;28;20091;-63
2022/10/14 03:47:13;;;;;;;46.72;32.28;;;;;;;9.55;100.00;100706.13;5033138;28;20082;-64
2022/10/14 03:49:38;;;;;;;44.67;31.23;;;;;;;9.51;100.00;100691.25;5032658;28;20033;-64
2022/10/14 03:52:03;;;;;;;49.75;31.90;;;;;;;9.75;100.00;100724.19;5032360;28;20021;-65
2022/10/14 03:54:29;;;;;;;45.65;29.50;;;;;;;9.75;100.00;100718.81;5031711;28;20033;-65
2022/10/14 03:56:54;;;;;;;44.20;30.00;;;;;;;9.75;100.00;100717.97;5033184;28;20030;-65
2022/10/14 03:59:20;;;;;;;47.33;31.40;;;;;;;9.63;100.00;100700.16;5031378;28;20033;-65
2022/10/14 04:01:46;;;;;;;48.20;32.50;;;;;;;9.77;100.00;100722.22;5032593;28;20394;-63
2022/10/14 04:04:11;;;;;;;46.35;31.75;;;;;;;9.77;100.00;100718.69;5032601;28;20025;-65
2022/10/14 04:06:36;;;;;;;47.47;31.52;;;;;;;9.77;100.00;100714.19;5032629;28;20156;-63
2022/10/14 04:09:03;;;;;;;47.42;32.28;;;;;;;9.67;100.00;100698.97;5031506;28;20033;-63
2022/10/14 04:11:29;;;;;;;47.05;32.40;;;;;;;9.82;100.00;100716.50;5032315;28;20116;-64
2022/10/14 04:13:59;;;;;;;52.42;32.90;;;;;;;9.83;100.00;100721.75;5031983;28;20109;-64
2022/10/14 04:16:25;;;;;;;49.05;32.97;;;;;;;9.81;100.00;100717.47;5033036;28;20660;-63
2022/10/14 04:18:51;;;;;;;52.53;32.25;;;;;;;9.83;100.00;100707.50;5032740;28;20029;-64
2022/10/14 04:21:17;;;;;;;46.42;32.05;;;;;;;9.87;100.00;100720.50;5030187;28;20483;-65
2022/10/14 04:23:42;;;;;;;49.70;33.35;;;;;;;9.90;100.00;100714.91;5022113;28;20737;-63
2022/10/14 04:26:08;;;;;;;52.65;35.13;;;;;;;9.94;100.00;100719.09;5029404;28;20397;-63
2022/10/14 04:28:34;;;;;;;49.55;32.17;;;;;;;9.98;100.00;100717.00;5030924;28;20025;-64
2022/10/14 04:31:00;;;;;;;54.13;34.60;;;;;;;10.02;100.00;100715.78;5025876;28;20376;-63
2022/10/14 04:33:25;;;;;;;49.80;33.95;;;;;;;10.04;100.00;100717.38;5020966;28;20453;-63
2022/10/14 04:35:59;;;;;;;54.53;34.38;;;;;;;10.05;100.00;100719.09;5020034;28;20040;-63
2022/10/14 04:38:25;;;;;;;48.10;31.80;;;;;;;10.06;100.00;100715.44;5019910;28;20017;-64
2022/10/14 04:40:51;;;;;;;47.85;33.00;;;;;;;10.06;100.00;100714.59;5029686;28;20044;-64
2022/10/14 04:43:16;;;;;;;56.95;35.72;;;;;;;10.04;100.00;100714.72;5028822;28;20029;-64
2022/10/14 04:45:42;;;;;;;51.08;34.03;;;;;;;9.95;100.00;100685.09;5021434;28;20060;-64
2022/10/14 04:48:07;;;;;;;53.45;34.08;;;;;;;10.11;100.00;100713.28;5026708;28;20021;-64
2022/10/14 04:50:32;;;;;;;51.60;33.55;;;;;;;10.15;100.00;100719.22;5020017;28;20026;-64
2022/10/14 04:52:58;;;;;;;48.17;33.03;;;;;;;10.07;100.00;100697.56;5021438;28;20466;-65
2022/10/14 04:55:23;;;;;;;51.65;34.40;;;;;;;10.15;100.00;100717.41;5018605;28;20030;-65
2022/10/14 04:57:49;;;;;;;53.92;35.60;;;;;;;10.15;100.00;100714.72;5019481;28;20642;-63
2022/10/14 05:00:14;;;;;;;50.65;34.88;;;;;;;10.09;100.00;100707.16;5017027;28;20037;-64
2022/10/14 05:02:40;;;;;;;53.33;34.85;;;;;;;10.17;100.00;100715.47;5012249;28;20033;-64
2022/10/14 05:05:06;;;;;;;52.05;34.83;;;;;;;10.09;100.00;100704.50;5033167;28;20071;-63
2022/10/14 05:07:32;;;;;;;56.08;33.92;;;;;;;10.12;100.00;100698.88;5051539;28;20119;-63
2022/10/14 05:09:58;;;;;;;53.90;35.35;;;;;;;10.11;100.00;100697.19;5051577;28;20128;-63
2022/10/14 05:12:23;;;;;;;53.88;33.95;;;;;;;10.19;100.00;100705.47;5051435;28;20036;-65
2022/10/14 05:14:49;;;;;;;52.38;33.63;;;;;;;10.20;100.00;100712.53;5051494;28;20098;-64
2022/10/14 05:17:14;;;;;;;61.22;34.65;;;;;;;10.26;100.00;100720.09;5051593;28;20028;-64
2022/10/14 05:19:39;;;;;;;58.80;35.40;;;;;;;10.26;100.00;100713.88;5051507;28;20037;-64
2022/10/14 05:22:05;;;;;;;51.97;35.35;;;;;;;10.26;100.00;100714.75;5019432;28;20481;-64
2022/10/14 05:24:30;;;;;;;61.03;35.45;;;;;;;10.27;100.00;100713.75;5011677;28;20030;-65
2022/10/14 05:26:56;;;;;;;51.72;34.03;;;;;;;10.26;100.00;100714.75;5011479;28;20030;-64
2022/10/14 05:29:21;;;;;;;51.38;33.95;;;;;;;10.27;100.00;100716.44;5011594;28;20033;-63
2022/10/14 05:31:46;;;;;;;53.38;33.20;;;;;;;10.26;100.00;100717.41;5011381;28;20046;-63
2022/10/14 05:34:12;;;;;;;57.03;33.70;;;;;;;10.25;100.00;100721.06;5011771;28;20026;-63
2022/10/14 05:36:38;;;;;;;57.90;34.70;;;;;;;10.18;100.00;100710.94;5011256;28;20041;-63
2022/10/14 05:39:07;;;;;;;64.53;36.63;;;;;;;10.23;100.00;100711.44;5011424;28;20027;-64
2022/10/14 05:41:32;;;;;;;57.42;35.05;;;;;;;10.30;100.00;100729.59;5011347;28;20050;-64
2022/10/14 05:43:57;;;;;;;57.47;34.13;;;;;;;10.34;100.00;100719.47;5012914;28;22027;-64
2022/10/14 05:46:23;;;;;;;50.38;33.58;;;;;;;10.37;100.00;100725.44;5025662;28;20037;-64
2022/10/14 05:48:48;;;;;;;59.78;34.78;;;;;;;10.31;100.00;100714.34;5030233;28;20057;-63
2022/10/14 05:51:14;;;;;;;55.45;33.70;;;;;;;10.36;100.00;100717.50;5028134;28;20025;-64
2022/10/14 05:53:40;;;;;;;54.55;34.35;;;;;;;10.37;100.00;100716.53;5027942;28;20026;-63
2022/10/14 05:56:08;;;;;;;54.60;34.00;;;;;;;10.49;100.00;100729.81;5030517;28;20034;-64
2022/10/14 05:58:34;;;;;;;64.47;34.20;;;;;;;10.53;100.00;100727.72;5030614;28;20029;-64
2022/10/14 06:01:00;;;;;;;66.00;35.67;;;;;;;10.56;100.00;100727.47;5029329;28;20064;-63
2022/10/14 06:03:26;;;;;;;50.78;33.75;;;;;;;10.51;100.00;100706.41;5030124;28;20116;-64
2022/10/14 06:05:52;;;;;;;53.40;33.95;;;;;;;10.61;100.00;100715.41;5029535;28;20029;-63
2022/10/14 06:08:17;;;;;;;49.00;33.28;;;;;;;10.68;100.00;100732.69;5029241;28;20439;-64
2022/10/14 06:10:42;;;;;;;52.13;34.60;;;;;;;10.82;100.00;100745.84;5030688;28;20112;-63
2022/10/14 06:13:08;;;;;;;55.97;37.33;;;;;;;10.85;100.00;100740.22;5030315;28;20030;-64
2022/10/14 06:15:35;;;;;;;57.70;37.25;;;;;;;10.92;100.00;100738.75;5029123;28;20078;-65
2022/10/14 06:18:00;;;;;;;54.00;35.58;;;;;;;11.01;100.00;100731.75;5008423;28;20033;-64
2022/10/14 06:20:26;;;;;;;55.67;37.50;;;;;;;11.06;100.00;100740.28;5009185;28;20582;-64
2022/10/14 06:22:51;;;;;;;60.28;37.75;;;;;;;10.87;100.00;100695.31;5010238;28;20052;-64
2022/10/14 06:25:17;;;;;;;59.30;37.45;;;;;;;11.20;100.00;100745.34;5010559;28;20584;-63
2022/10/14 06:27:43;;;;;;;52.03;36.72;;;;;;;11.32;100.00;100747.03;5010565;28;20049;-64
2022/10/14 06:30:09;;;;;;;63.70;39.38;;;;;;;11.41;100.00;100751.59;5010530;28;20065;-65
2022/10/14 06:32:34;;;;;;;57.55;38.58;;;;;;;11.53;100.00;100755.94;5010300;28;20038;-63
2022/10/14 06:35:00;;;;;;;59.70;38.97;;;;;;;11.59;100.00;100755.41;5010197;28;20397;-65
2022/10/14 06:37:25;;;;;;;55.65;37.42;;;;;;;11.71;100.00;100757.09;5010319;28;20443;-63
2022/10/14 06:39:51;;;;;;;58.03;38.53;;;;;;;11.75;100.00;100752.28;5009949;28;20033;-63
2022/10/14 06:42:16;;;;;;;56.70;36.75;;;;;;;11.88;100.00;100767.25;5010391;28;20085;-63
2022/10/14 06:44:42;;;;;;;56.78;37.78;;;;;;;11.89;100.00;100752.81;5010399;28;20061;-64
2022/10/14 06:47:07;;;;;;;53.85;36.15;;;;;;;12.05;100.00;100771.16;5010071;28;20311;-64
2022/10/14 06:49:33;;;;;;;57.70;36.45;;;;;;;12.12;100.00;100764.28;5009973;28;20057;-64
2022/10/14 06:51:58;;;;;;;52.88;32.67;;;;;;;12.33;100.00;100775.84;5009823;28;20041;-65
2022/10/14 06:54:24;;;;;;;50.10;31.90;;;;;;;12.22;100.00;100740.97;5010070;28;20556;-63
2022/10/14 06:56:49;;;;;;;52.47;32.83;;;;;;;12.42;100.00;100757.06;5009893;28;20048;-63
2022/10/14 06:59:15;;;;;;;48.92;32.58;;;;;;;12.60;99.87;100776.06;5010201;28;20032;-64
2022/10/14 07:01:40;;;;;;;49.85;32.25;;;;;;;12.68;99.53;100779.81;5009923;28;20070;-63
2022/10/14 07:04:05;;;;;;;48.15;31.80;;;;;;;12.80;98.50;100777.88;5009867;28;20022;-65
2022/10/14 07:06:31;;;;;;;48.83;31.65;;;;;;;12.93;98.27;100783.84;5009867;28;20045;-64
2022/10/14 07:08:57;;;;;;;43.92;30.30;;;;;;;13.07;97.74;100773.56;5009794;28;20030;-63
2022/10/14 07:11:22;;;;;;;47.88;31.63;;;;;;;13.16;97.99;100769.19;5021911;28;20041;-64
2022/10/14 07:13:47;;;;;;;46.63;31.92;;;;;;;13.30;97.28;100779.53;5044987;28;20083;-64
2022/10/14 07:16:13;;;;;;;50.88;31.08;;;;;;;13.40;96.45;100775.00;5029965;28;20078;-74
2022/10/14 07:18:38;;;;;;;47.80;32.03;;;;;;;13.34;95.21;100751.31;5047503;28;20053;-74
2022/10/14 07:21:05;;;;;;;46.80;29.50;;;;;;;13.52;95.37;100777.38;5049029;28;20690;-72
2022/10/14 07:23:30;;;;;;;45.90;30.58;;;;;;;13.59;94.76;100781.25;5033566;28;20472;-74
2022/10/14 07:25:57;;;;;;;49.00;30.63;;;;;;;13.68;94.38;100756.09;5016739;28;20156;-76
2022/10/14 07:28:23;;;;;;;52.78;32.05;;;;;;;13.96;92.59;100773.22;5014207;28;20021;-73
2022/10/14 07:30:58;;;;;;;42.95;30.33;;;;;;;14.13;91.83;100794.09;5013750;28;20049;-74
2022/10/14 07:33:24;;;;;;;44.92;30.83;;;;;;;14.36;92.03;100765.78;5013622;28;20045;-64
2022/10/14 07:35:49;;;;;;;43.90;30.90;;;;;;;14.99;88.20;100769.44;5013573;28;20061;-63
2022/10/14 07:38:15;;;;;;;44.58;30.25;;;;;;;15.67;83.82;100777.75;5015815;28;20029;-64
2022/10/14 07:40:40;;;;;;;42.55;28.77;;;;;;;16.27;79.03;100780.56;5033178;28;20075;-64
2022/10/14 07:43:06;;;;;;;39.13;28.42;;;;;;;16.83;74.81;100780.91;5033251;28;20116;-64
2022/10/14 07:45:34;;;;;;;38.72;27.80;;;;;;;17.26;71.92;100770.69;5048647;28;20045;-63
2022/10/14 07:48:00;;;;;;;34.17;26.15;;;;;;;17.70;68.61;100760.41;5048198;28;20060;-63
2022/10/14 07:50:27;;;;;;;47.92;29.20;;;;;;;18.01;67.29;100765.00;5033315;28;20140;-64
2022/10/14 07:52:52;;;;;;;38.80;26.63;;;;;;;18.37;66.01;100760.03;5032852;28;20113;-64
2022/10/14 07:55:18;;;;;;;33.45;26.30;;;;;;;18.82;63.90;100765.63;5033300;28;20128;-63
2022/10/14 07:57:43;;;;;;;38.28;26.35;;;;;;;19.01;62.71;100740.75;5033021;28;20115;-64
2022/10/14 08:00:10;;;;;;;32.20;26.88;;;;;;;19.24;61.47;100747.06;5032907;28;20037;-64
2022/10/14 08:02:35;;;;;;;35.45;26.80;;;;;;;19.02;61.51;100733.44;5032913;28;20480;-64
2022/10/14 08:05:01;;;;;;;43.25;26.77;;;;;;;18.85;62.90;100753.56;5048069;28;20028;-66
2022/10/14 08:07:28;;;;;;;38.78;27.30;;;;;;;18.58;63.83;100768.47;5032787;28;20056;-63
2022/10/14 08:09:53;;;;;;;44.10;26.50;;;;;;;18.24;64.43;100750.69;5032835;28;20049;-63
2022/10/14 08:12:19;;;;;;;35.85;26.30;;;;;;;18.01;65.77;100764.13;5032998;28;20789;-64
2022/10/14 08:14:45;;;;;;;39.15;26.73;;;;;;;17.70;66.78;100760.41;5032794;28;20033;-63
2022/10/14 08:17:10;;;;;;;32.88;27.13;;;;;;;17.55;68.56;100771.13;5032497;28;20017;-64
2022/10/14 08:19:36;;;;;;;36.53;27.73;;;;;;;17.38;69.90;100768.50;5032552;28;20028;-63
2022/10/14 08:22:01;;;;;;;37.53;26.48;;;;;;;17.33;70.18;100768.16;5032211;28;20481;-63
2022/10/14 08:24:27;;;;;;;39.58;27.80;;;;;;;17.26;71.59;100768.00;5032533;28;20025;-65
2022/10/14 08:26:57;;;;;;;39.45;26.20;;;;;;;17.23;71.51;100765.59;5032539;28;20036;-65
2022/10/14 08:29:24;;;;;;;36.78;26.58;;;;;;;17.25;71.41;100765.44;5047859;28;20032;-64
2022/10/14 08:31:51;;;;;;;41.88;26.42;;;;;;;17.30;71.75;100768.50;5032383;28;20483;-63
2022/10/14 08:34:19;;;;;;;39.20;26.90;;;;;;;17.32;71.41;100761.88;5032487;28;20204;-64
2022/10/14 08:36:47;;;;;;;35.40;25.13;;;;;;;17.40;71.81;100763.75;5047710;28;20021;-64
2022/10/14 08:39:12;;;;;;;35.58;25.00;;;;;;;17.37;72.02;100748.69;5047602;28;20038;-64
2022/10/14 08:42:15;;;;;;;32.40;24.98;;;;;;;17.51;71.42;100761.59;5032412;28;20025;-64
2022/10/14 08:44:48;;;;;;;35.88;25.83;;;;;;;17.58;71.24;100762.59;5047539;28;20048;-64
2022/10/14 08:47:19;;;;;;;37.23;23.40;;;;;;;17.65;70.24;100763.66;5032120;28;20567;-65
2022/10/14 08:50:06;;;;;;;34.92;24.85;;;;;;;17.72;70.08;100752.97;5047461;28;20112;-65
2022/10/14 08:52:43;;;;;;;38.13;25.88;;;;;;;17.78;69.24;100739.56;5032379;28;20041;-65
2022/10/14 08:55:26;;;;;;;37.58;24.67;;;;;;;18.00;68.62;100751.59;5032041;28;20035;-66
2022/10/14 08:58:17;;;;;;;31.37;23.33;;;;;;;18.23;68.31;100746.28;5032030;28;20026;-64
2022/10/14 09:00:46;;;;;;;32.40;23.73;;;;;;;18.57;66.85;100744.19;5031906;28;20053;-65
2022/10/14 09:03:23;;;;;;;29.52;21.55;;;;;;;19.38;64.38;100727.25;5031573;28;20029;-65
2022/10/14 09:05:59;;;;;;;36.03;23.02;;;;;;;21.18;58.65;100730.47;5031734;28;20025;-64
2022/10/14 09:08:31;;;;;;;41.40;21.60;;;;;;;22.73;52.55;100727.34;5031650;28;20026;-63
2022/10/14 09:10:57;;;;;;;29.23;19.98;;;;;;;23.78;49.16;100723.03;5031630;28;20025;-67
2022/10/14 09:13:38;;;;;;;32.78;20.55;;;;;;;24.52;46.76;100720.88;5031507;28;20025;-65
2022/10/14 09:16:20;;;;;;;27.38;18.33;;;;;;;25.40;44.67;100710.84;5046694;28;20033;-64
2022/10/14 09:18:54;;;;;;;28.20;19.17;;;;;;;25.81;43.54;100715.81;5031485;28;20021;-65
2022/10/14 09:21:19;;;;;;;;;;;;;;;25.58;43.52;100715.56;5032051;28;20028;-65
2022/10/14 09:23:55;;;;;;;25.95;17.25;;;;;;;25.85;42.91;100708.81;5031459;28;19924;-64
2022/10/14 09:26:20;;;;;;;21.23;16.75;;;;;;;26.43;41.51;100712.94;5031664;28;20507;-63
2022/10/14 09:28:48;;;;;;;22.25;15.00;;;;;;;26.95;40.22;100711.53;5031263;28;20025;-64
2022/10/14 09:31:13;;;;;;;20.40;14.50;;;;;;;27.42;38.65;100700.50;5031203;28;20443;-64
2022/10/14 09:33:41;;;;;;;20.63;13.30;;;;;;;27.81;37.29;100702.63;5046493;28;20031;-64
2022/10/14 09:36:19;;;;;;;21.65;13.48;;;;;;;28.14;36.86;100707.59;5031031;28;20072;-64
2022/10/14 09:38:51;;;;;;;20.42;13.40;;;;;;;27.83;37.15;100705.97;5046405;28;20030;-64
2022/10/14 09:41:21;;;;;;;17.23;12.30;;;;;;;27.90;37.12;100700.41;5045836;28;20056;-65
2022/10/14 09:44:21;;;;;;;15.45;13.75;;;;;;;27.51;37.53;100706.50;5031254;28;20067;-64
2022/10/14 09:46:54;;;;;;;16.63;12.75;;;;;;;27.29;38.07;100675.91;5026772;28;20036;-64
2022/10/14 09:49:30;;;;;;;22.60;13.93;;;;;;;27.88;36.96;100692.34;5030993;28;20108;-64
2022/10/14 09:51:56;;;;;;;19.33;12.73;;;;;;;28.55;35.87;100685.41;5030774;28;20472;-63
2022/10/14 09:54:28;;;;;;;18.52;12.60;;;;;;;28.87;35.36;100681.13;5030964;28;20048;-63
2022/10/14 09:57:01;;;;;;;18.35;13.20;;;;;;;29.62;34.36;100687.34;5030809;28;20037;-64
2022/10/14 09:59:27;;;;;;;19.70;14.20;;;;;;;30.21;33.64;100692.25;5030849;28;20033;-64
2022/10/14 10:01:59;;;;;;;17.38;13.05;;;;;;;30.84;32.32;100687.06;5030554;28;20088;-64
2022/10/14 10:04:30;;;;;;;18.88;12.40;;;;;;;31.34;31.91;100690.44;5030763;28;20033;-65
2022/10/14 10:06:58;;;;;;;17.73;12.75;;;;;;;31.51;31.10;100679.25;5030521;28;20026;-64
2022/10/14 10:09:24;;;;;;;15.63;12.05;;;;;;;31.93;30.51;100671.88;5030709;28;20125;-64
2022/10/14 10:11:49;;;;;;;22.30;12.43;;;;;;;31.93;30.27;100667.19;5030159;28;20036;-64
2022/10/14 10:14:21;;;;;;;19.60;11.27;;;;;;;31.73;30.23;100683.63;5030656;28;20037;-65
2022/10/14 10:16:48;;;;;;;13.02;11.05;;;;;;;31.69;30.35;100678.88;5030514;28;20060;-65
2022/10/14 10:19:33;;;;;;;16.70;11.38;;;;;;;30.97;31.07;100683.91;5045927;28;20112;-64
2022/10/14 10:22:32;;;;;;;12.45;10.43;;;;;;;30.58;31.29;100685.03;5030260;28;20049;-63
2022/10/14 10:25:01;;;;;;;16.88;12.50;;;;;;;29.71;33.02;100677.53;5026326;28;20132;-64
2022/10/14 10:27:33;;;;;;;15.75;10.95;;;;;;;29.15;33.25;100672.91;5030485;28;20029;-64
2022/10/14 10:30:13;;;;;;;14.43;10.70;;;;;;;28.27;35.28;100685.28;5030317;28;20485;-63
2022/10/14 10:32:42;;;;;;;18.63;11.15;;;;;;;27.30;36.69;100668.44;5045310;28;20060;-64
2022/10/14 10:35:26;;;;;;;24.17;11.82;;;;;;;26.47;38.17;100682.00;5029981;28;20443;-64
2022/10/14 10:37:51;;;;;;;;;;;;;;;25.41;40.33;100681.47;5030260;28;20047;-64
2022/10/14 10:40:30;;;;;;;17.88;12.10;;;;;;;24.98;40.84;100677.69;5030227;28;19920;-64
2022/10/14 10:43:01;;;;;;;14.00;12.18;;;;;;;24.17;42.90;100670.97;5029806;28;20041;-65
2022/10/14 10:45:47;;;;;;;17.75;12.95;;;;;;;23.64;44.38;100670.13;5045359;28;20036;-64
2022/10/14 10:48:31;;;;;;;14.57;11.68;;;;;;;23.18;45.48;100663.75;5017740;28;20133;-63
2022/10/14 10:51:06;;;;;;;18.30;12.63;;;;;;;22.78;46.52;100661.09;5029904;28;20025;-63
2022/10/14 10:54:00;;;;;;;17.67;12.88;;;;;;;22.43;48.15;100671.22;5029056;28;20033;-64
2022/10/14 10:56:38;;;;;;;29.95;13.57;;;;;;;22.12;49.10;100668.13;5030103;28;20029;-63
2022/10/14 10:59:22;;;;;;;20.63;13.73;;;;;;;21.79;49.80;100645.16;5044915;28;20492;-63
2022/10/14 11:02:02;;;;;;;22.08;13.27;;;;;;;21.73;50.14;100657.75;5029791;28;20461;-64
2022/10/14 11:04:51;;;;;;;19.80;12.88;;;;;;;21.51;50.83;100647.03;5045037;28;20366;-64
2022/10/14 11:13:44;;;;;;;22.38;12.05;;;;;;;21.25;52.21;100638.59;5029937;28;20474;-65
2022/10/14 11:16:44;;;;;;;18.35;13.13;;;;;;;21.14;52.30;100637.25;5044916;28;20116;-65
2022/10/14 11:19:13;;;;;;;23.83;13.48;;;;;;;21.10;52.31;100640.53;5029374;28;20025;-64
2022/10/14 11:21:43;;;;;;;21.08;12.63;;;;;;;21.02;52.42;100636.06;5029439;28;20060;-65
2022/10/14 11:24:42;;;;;;;14.60;12.52;;;;;;;20.82;52.79;100621.34;5029369;28;20464;-64
2022/10/14 11:27:32;;;;;;;19.73;12.50;;;;;;;20.90;52.75;100625.84;5029282;28;20071;-63